Ana Sayfa
METAR-TAF:

METAR-TAF

Havaalanları :

Talladega, Alabama, Amerika Birleşik Devletleri

Enlem: 33-34-10N, Boylam: 086-03-04W, yükseklik: 160 m

Güncel hava durumu gözlemi

Rapor saat 17:15 UTC de 25 dakika önce yapıldı.
Rüzgar değişken yönden 4 kt
Sıcaklık 34°C
Nem 32%
Basınç 1015 hPa
Görüş mesafesi: 16.1 km
Açık gökyüzü

METAR: KASN 251715Z AUTO VRB04KT 10SM CLR 34/15 A2997 RMK AO2

Saat: 12:40 (17:40 UTC)

Tahmin

Rapor saat 11:20 UTC de 6 saat ve 20 dakika önce yapıldı.
Ayın 25'si saat 12 UTC'den ayın 26'si saat 12 UTC'ye kadar geçerli Tahmin
Rüzgar kuzeydan kt
Görüş mesafesi: 10 km
Açık gökyüzü
Ayın 25'si saat 1600 UTC'den
Rüzgar kuzey/kuzeydoğudan 6 kt
Görüş mesafesi: 10 km
Açık gökyüzü
Ayın 26'si saat 0100 UTC'den
Rüzgar kuzeydan kt
Görüş mesafesi: 10 km
25000 ft yükseklikte az bulutlu

TAF: KASN 251120Z 2512/2612 00000KT P6SM SKC FM251600 02006KT P6SM SKC FM260100 00000KT P6SM FEW250

4.000'den fazla havaalanı için hava durumu gözlemleri ve tahminleri (METAR ve TAF raporları).

Kullanılabilir istasyonlar harita üzerinde sarı ve kırmızı noktalarla gösterilir.

İstasyonun adını görmek için fareyi noktanın üzerinde gezdirin.

Sonrasında hava gözlem ve tahminlerini görmek için tıklayın.

Haritayı değiştirmek için: yaklaştırmak için siyah artı işaretli yeşil düğmeye ve uzaklaştırmak için de eksi işaretli düğmeye hızla tıklayın; bitişik haritalar için yeşil okları kullanın.


METAR-TAF: